Time,TemperatureF,DewpointF,PressureIn,WindDirection,WindDirectionDegrees,WindSpeedMPH,WindSpeedGustMPH,Humidity,HourlyPrecipIn,Conditions,Clouds,dailyrainin,SoftwareType,DateUTC
2013-01-24 00:05:00,-5.4,-13.5,29.94,NE,45,0.0,-999.0,67,-99.99,,,0.00,Acu-Link.com,2013-01-24 05:05:00,
2013-01-24 00:20:00,-6.3,-13.8,29.94,NE,45,0.0,-999.0,69,-99.99,,,0.00,Acu-Link.com,2013-01-24 05:20:00,
2013-01-24 00:35:00,-7.2,-14.4,29.93,NE,45,0.0,-999.0,70,-99.99,,,0.00,Acu-Link.com,2013-01-24 05:35:00,
2013-01-24 00:50:00,-7.2,-14.1,29.94,NE,45,0.0,-999.0,71,-99.99,,,0.00,Acu-Link.com,2013-01-24 05:50:00,
2013-01-24 01:05:00,-7.6,-14.5,29.94,NE,45,0.0,-999.0,71,-99.99,,,0.00,Acu-Link.com,2013-01-24 06:05:00,
2013-01-24 01:20:00,-8.1,-14.9,29.95,NE,45,0.0,-999.0,71,-99.99,,,0.00,Acu-Link.com,2013-01-24 06:20:00,
2013-01-24 01:35:00,-8.3,-14.9,29.95,NE,45,0.0,-999.0,72,-99.99,,,0.00,Acu-Link.com,2013-01-24 06:35:00,
2013-01-24 01:50:00,-8.9,-15.4,29.96,NE,45,0.0,-999.0,72,-99.99,,,0.00,Acu-Link.com,2013-01-24 06:50:00,
2013-01-24 02:05:00,-9.0,-15.3,29.95,NE,45,0.0,-999.0,73,-99.99,,,0.00,Acu-Link.com,2013-01-24 07:05:00,
2013-01-24 02:21:00,-9.4,-15.4,29.95,NE,45,0.0,-999.0,74,-99.99,,,0.00,Acu-Link.com,2013-01-24 07:21:00,
2013-01-24 02:36:00,-9.9,-15.9,29.95,NE,45,0.0,-999.0,74,-99.99,,,0.00,Acu-Link.com,2013-01-24 07:36:00,
2013-01-24 02:51:00,-10.3,-16.0,29.94,NE,45,0.0,-999.0,75,-99.99,,,0.00,Acu-Link.com,2013-01-24 07:51:00,
2013-01-24 03:06:00,-10.7,-16.1,29.93,NE,45,0.0,-999.0,76,-99.99,,,0.00,Acu-Link.com,2013-01-24 08:06:00,
2013-01-24 03:21:00,-11.0,-16.2,29.94,NE,45,0.0,-999.0,77,-99.99,,,0.00,Acu-Link.com,2013-01-24 08:21:00,
2013-01-24 03:36:00,-11.0,-16.2,29.93,NE,45,0.0,-999.0,77,-99.99,,,0.00,Acu-Link.com,2013-01-24 08:36:00,
2013-01-24 03:58:00,-11.4,-16.6,29.93,NE,45,0.0,-999.0,77,-99.99,,,0.00,Acu-Link.com,2013-01-24 08:58:00,
2013-01-24 04:16:00,-11.4,-16.6,29.93,NE,45,0.0,-999.0,77,-99.99,,,0.00,Acu-Link.com,2013-01-24 09:16:00,
2013-01-24 04:32:00,-11.6,-16.5,29.93,NE,45,1.7,-999.0,78,-99.99,,,0.00,Acu-Link.com,2013-01-24 09:32:00,
2013-01-24 04:47:00,-11.4,-16.1,29.92,NE,45,0.0,-999.0,79,-99.99,,,0.00,Acu-Link.com,2013-01-24 09:47:00,
2013-01-24 05:04:00,-11.6,-16.3,29.93,NE,45,0.0,-999.0,79,-99.99,,,0.00,Acu-Link.com,2013-01-24 10:04:00,
2013-01-24 05:19:00,-12.3,-16.7,29.93,NE,45,0.0,-999.0,80,-99.99,,,0.00,Acu-Link.com,2013-01-24 10:19:00,
2013-01-24 05:42:00,-12.6,-16.7,29.94,NE,45,0.0,-999.0,81,-99.99,,,0.00,Acu-Link.com,2013-01-24 10:42:00,
2013-01-24 06:01:00,-12.5,-15.9,29.94,NE,45,0.0,-999.0,84,-99.99,,,0.00,Acu-Link.com,2013-01-24 11:01:00,
2013-01-24 06:28:00,-11.7,-14.9,29.95,NE,45,2.2,-999.0,85,-99.99,,,0.00,Acu-Link.com,2013-01-24 11:28:00,
2013-01-24 06:56:00,-9.8,-13.8,29.95,NE,45,0.0,-999.0,82,-99.99,,,0.00,Acu-Link.com,2013-01-24 11:56:00,
2013-01-24 07:13:00,-9.9,-14.1,29.95,East,90,0.0,-999.0,81,-99.99,,,0.00,Acu-Link.com,2013-01-24 12:13:00,
2013-01-24 07:37:00,-10.1,-14.5,29.96,East,90,0.0,-999.0,80,-99.99,,,0.00,Acu-Link.com,2013-01-24 12:37:00,
2013-01-24 08:12:00,-6.9,-11.4,29.96,East,90,4.2,-999.0,80,-99.99,,,0.00,Acu-Link.com,2013-01-24 13:12:00,
2013-01-24 08:27:00,-3.5,-9.9,29.97,WSW,247,2.2,-999.0,73,-99.99,,,0.00,Acu-Link.com,2013-01-24 13:27:00,
2013-01-24 08:49:00,-1.1,-9.7,29.97,SSW,202,1.7,-999.0,66,-99.99,,,0.00,Acu-Link.com,2013-01-24 13:49:00,
2013-01-24 12:55:00,12.6,-6.6,29.95,SSW,202,4.2,-999.0,41,-99.99,,,0.00,Acu-Link.com,2013-01-24 17:55:00,
2013-01-24 13:32:00,12.6,-6.6,29.94,SW,225,3.7,-999.0,41,-99.99,,,0.00,Acu-Link.com,2013-01-24 18:32:00,
2013-01-24 14:07:00,11.3,-8.3,29.94,South,180,3.2,-999.0,40,-99.99,,,0.00,Acu-Link.com,2013-01-24 19:07:00,
2013-01-24 14:56:00,11.3,-7.8,29.95,South,180,4.2,-999.0,41,-99.99,,,0.00,Acu-Link.com,2013-01-24 19:56:00,
2013-01-24 17:16:00,8.6,-9.7,29.97,SE,135,4.7,-999.0,42,-99.99,,,0.00,Acu-Link.com,2013-01-24 22:16:00,
2013-01-24 17:31:00,8.4,-8.5,29.98,South,180,2.7,-999.0,45,-99.99,,,0.00,Acu-Link.com,2013-01-24 22:31:00,
2013-01-24 17:49:00,8.4,-8.5,29.98,SE,135,3.7,-999.0,45,-99.99,,,0.00,Acu-Link.com,2013-01-24 22:49:00,
2013-01-24 18:06:00,7.9,-8.5,29.99,SE,135,3.7,-999.0,46,-99.99,,,0.00,Acu-Link.com,2013-01-24 23:06:00,
2013-01-24 18:32:00,7.7,-9.2,30.00,NNW,337,8.9,-999.0,45,-99.99,,,0.00,Acu-Link.com,2013-01-24 23:32:00,